Time;durP1;ratioP1;P1;durP2;ratioP2;P2;SDS_P1;SDS_P2;PMS_P1;PMS_P2;Temp;Humidity;BMP_temperature;BMP_pressure;BME280_temperature;BME280_humidity;BME280_pressure;Samples;Min_cycle;Max_cycle;Signal;HPM_P1;HPM_P2
2023/05/18 00:02:04;;;;;;;0.10;0.10;;;;;;;;;;4927962;29;20036;-80
2023/05/18 00:04:34;;;;;;;0.20;0.20;;;;;;;;;;4945477;28;20019;-80
2023/05/18 00:07:03;;;;;;;0.10;0.10;;;;;;;;;;4944117;29;20111;-80
2023/05/18 00:09:33;;;;;;;0.20;0.20;;;;;;;;;;4941917;29;20031;-80
2023/05/18 00:12:00;;;;;;;0.40;0.40;;;;;;;;;;4945421;29;20042;-80
2023/05/18 00:14:26;;;;;;;0.20;0.20;;;;;;;;;;4941547;28;20050;-80
2023/05/18 00:16:54;;;;;;;0.35;0.35;;;;;;;;;;4922310;29;20066;-79
2023/05/18 00:19:21;;;;;;;0.20;0.20;;;;;;;;;;4945790;29;20027;-80
2023/05/18 00:21:47;;;;;;;0.20;0.20;;;;;;;;;;4944506;29;20189;-80
2023/05/18 00:24:13;;;;;;;0.20;0.20;;;;;;;;;;4944661;29;20058;-80
2023/05/18 00:26:44;;;;;;;0.20;0.20;;;;;;;;;;4945634;29;20032;-80
2023/05/18 00:29:10;;;;;;;0.25;0.25;;;;;;;;;;4942159;29;20054;-80
2023/05/18 00:31:37;;;;;;;0.20;0.20;;;;;;;;;;4945420;29;20023;-80
2023/05/18 00:34:03;;;;;;;0.20;0.20;;;;;;;;;;4943580;29;20054;-80
2023/05/18 00:36:30;;;;;;;0.20;0.20;;;;;;;;;;4932597;29;20020;-80
2023/05/18 00:38:55;;;;;;;0.20;0.20;;;;;;;;;;4941720;29;21538;-80
2023/05/18 00:41:21;;;;;;;0.10;0.10;;;;;;;;;;4944950;29;20067;-80
2023/05/18 00:43:47;;;;;;;0.10;0.10;;;;;;;;;;4940400;29;20028;-80
2023/05/18 00:46:12;;;;;;;0.20;0.20;;;;;;;;;;4938341;29;20075;-79
2023/05/18 00:48:37;;;;;;;0.13;0.13;;;;;;;;;;4941869;29;20031;-80
2023/05/18 00:51:04;;;;;;;0.10;0.10;;;;;;;;;;4942382;29;20090;-80
2023/05/18 00:53:30;;;;;;;0.20;0.20;;;;;;;;;;4924046;29;20023;-79
2023/05/18 00:55:57;;;;;;;0.13;0.13;;;;;;;;;;4925188;29;20039;-80
2023/05/18 00:58:22;;;;;;;0.20;0.20;;;;;;;;;;4923768;29;20097;-80
2023/05/18 01:00:47;;;;;;;0.10;0.10;;;;;;;;;;4941122;29;20477;-79
2023/05/18 01:03:14;;;;;;;0.10;0.10;;;;;;;;;;4946485;29;20059;-80
2023/05/18 01:05:39;;;;;;;0.20;0.20;;;;;;;;;;4942970;28;20083;-80
2023/05/18 01:08:05;;;;;;;0.20;0.20;;;;;;;;;;4938461;29;20058;-80
2023/05/18 01:10:36;;;;;;;0.20;0.20;;;;;;;;;;4949633;29;20027;-80
2023/05/18 01:13:11;;;;;;;0.10;0.10;;;;;;;;;;4921680;29;20402;-80
2023/05/18 01:15:38;;;;;;;0.20;0.20;;;;;;;;;;4935320;29;20027;-80
2023/05/18 01:18:09;;;;;;;0.20;0.20;;;;;;;;;;4939627;29;20068;-80
2023/05/18 01:20:44;;;;;;;0.20;0.20;;;;;;;;;;4935601;29;20497;-80
2023/05/18 01:23:34;;;;;;;0.20;0.20;;;;;;;;;;4945954;29;20598;-80
2023/05/18 01:26:14;;;;;;;0.20;0.20;;;;;;;;;;4942363;28;20027;-80
2023/05/18 01:28:41;;;;;;;0.20;0.20;;;;;;;;;;4935360;29;20024;-79
2023/05/18 01:31:08;;;;;;;0.25;0.25;;;;;;;;;;4958157;28;20024;-81
2023/05/18 01:33:34;;;;;;;0.20;0.20;;;;;;;;;;4953120;28;20016;-80
2023/05/18 01:35:59;;;;;;;0.10;0.10;;;;;;;;;;4925814;29;20131;-80
2023/05/18 01:38:27;;;;;;;0.20;0.20;;;;;;;;;;4925207;29;20038;-80
2023/05/18 01:41:14;;;;;;;0.20;0.20;;;;;;;;;;4928650;29;20032;-80
2023/05/18 01:43:47;;;;;;;0.20;0.20;;;;;;;;;;4937000;29;20031;-80
2023/05/18 01:46:20;;;;;;;0.20;0.20;;;;;;;;;;4926457;29;20032;-80
2023/05/18 01:48:55;;;;;;;0.20;0.20;;;;;;;;;;4942430;29;20042;-80
2023/05/18 01:51:23;;;;;;;0.20;0.20;;;;;;;;;;4939478;29;20055;-81
2023/05/18 01:53:55;;;;;;;0.20;0.20;;;;;;;;;;4945686;29;20548;-81
2023/05/18 01:56:21;;;;;;;0.10;0.10;;;;;;;;;;4937059;29;20482;-80
2023/05/18 01:58:47;;;;;;;0.20;0.20;;;;;;;;;;4944498;29;20110;-80
2023/05/18 02:01:14;;;;;;;0.20;0.20;;;;;;;;;;4937842;29;20103;-79
2023/05/18 02:03:42;;;;;;;0.20;0.20;;;;;;;;;;4941096;29;20071;-80
2023/05/18 02:06:07;;;;;;;0.20;0.20;;;;;;;;;;4939085;29;20038;-79
2023/05/18 02:08:33;;;;;;;0.30;0.30;;;;;;;;;;4945826;29;20463;-79
2023/05/18 02:10:58;;;;;;;0.20;0.20;;;;;;;;;;4943623;29;20478;-79
2023/05/18 02:13:23;;;;;;;0.20;0.20;;;;;;;;;;4942086;29;20035;-80
2023/05/18 02:15:49;;;;;;;0.20;0.20;;;;;;;;;;4942474;29;20032;-80
2023/05/18 02:18:15;;;;;;;0.20;0.20;;;;;;;;;;4949413;29;20023;-80
2023/05/18 02:20:40;;;;;;;0.20;0.20;;;;;;;;;;4944995;29;20032;-80
2023/05/18 02:23:06;;;;;;;0.20;0.20;;;;;;;;;;4926699;29;20035;-80
2023/05/18 02:25:31;;;;;;;0.20;0.20;;;;;;;;;;4943585;29;20439;-80
2023/05/18 02:27:56;;;;;;;0.30;0.30;;;;;;;;;;4925732;29;20027;-80
2023/05/18 02:30:22;;;;;;;0.20;0.20;;;;;;;;;;4941681;29;20058;-79
2023/05/18 02:32:47;;;;;;;0.20;0.20;;;;;;;;;;4945684;29;20031;-80
2023/05/18 02:35:14;;;;;;;0.30;0.30;;;;;;;;;;4943609;29;20031;-80
2023/05/18 02:37:41;;;;;;;0.20;0.20;;;;;;;;;;4951244;29;20031;-79
2023/05/18 02:40:11;;;;;;;0.20;0.20;;;;;;;;;;4956057;29;20078;-79
2023/05/18 02:42:37;;;;;;;0.20;0.20;;;;;;;;;;4951989;29;20036;-79
2023/05/18 02:45:02;;;;;;;0.20;0.20;;;;;;;;;;4944791;28;20039;-79
2023/05/18 02:47:28;;;;;;;0.20;0.20;;;;;;;;;;4927599;29;20034;-79
2023/05/18 02:49:53;;;;;;;0.20;0.20;;;;;;;;;;4952472;29;20046;-80
2023/05/18 02:52:18;;;;;;;0.22;0.22;;;;;;;;;;4949389;29;20028;-79
2023/05/18 02:54:44;;;;;;;0.30;0.30;;;;;;;;;;4948771;29;20038;-80
2023/05/18 02:57:10;;;;;;;0.30;0.30;;;;;;;;;;4928052;29;20034;-79
2023/05/18 02:59:36;;;;;;;0.20;0.20;;;;;;;;;;4952244;29;20079;-79
2023/05/18 03:02:01;;;;;;;0.20;0.20;;;;;;;;;;4950359;29;20027;-79
2023/05/18 03:04:27;;;;;;;0.30;0.30;;;;;;;;;;4950023;29;20040;-79
2023/05/18 03:06:52;;;;;;;0.30;0.30;;;;;;;;;;4948321;29;20027;-79
2023/05/18 03:09:18;;;;;;;0.25;0.25;;;;;;;;;;4959173;29;20028;-79
2023/05/18 03:11:44;;;;;;;0.20;0.20;;;;;;;;;;4942840;29;20482;-80
2023/05/18 03:14:09;;;;;;;0.20;0.20;;;;;;;;;;4936655;29;20114;-79
2023/05/18 03:16:37;;;;;;;0.20;0.20;;;;;;;;;;4943128;29;20431;-79
2023/05/18 03:19:03;;;;;;;0.20;0.20;;;;;;;;;;4933059;29;20032;-80
2023/05/18 03:21:32;;;;;;;0.20;0.20;;;;;;;;;;4940861;29;20031;-80
2023/05/18 03:24:02;;;;;;;0.20;0.20;;;;;;;;;;4940995;29;20055;-80
2023/05/18 03:26:29;;;;;;;0.28;0.28;;;;;;;;;;4950140;29;20039;-80
2023/05/18 03:28:58;;;;;;;0.20;0.20;;;;;;;;;;4945146;29;20464;-80
2023/05/18 03:31:23;;;;;;;0.20;0.20;;;;;;;;;;4935424;29;20371;-79
2023/05/18 03:33:49;;;;;;;0.30;0.30;;;;;;;;;;4943145;29;20048;-80
2023/05/18 03:36:15;;;;;;;0.20;0.20;;;;;;;;;;4941864;29;21046;-80
2023/05/18 03:38:44;;;;;;;0.20;0.20;;;;;;;;;;4945019;29;20031;-79
2023/05/18 03:41:10;;;;;;;0.30;0.30;;;;;;;;;;4938631;29;20023;-79
2023/05/18 03:43:35;;;;;;;0.20;0.20;;;;;;;;;;4958692;29;20485;-80
2023/05/18 03:46:03;;;;;;;0.20;0.20;;;;;;;;;;4929447;29;20059;-79
2023/05/18 03:48:28;;;;;;;0.25;0.25;;;;;;;;;;4961220;28;20035;-79
2023/05/18 03:50:54;;;;;;;0.22;0.22;;;;;;;;;;4943624;29;20070;-79
2023/05/18 03:53:20;;;;;;;0.20;0.20;;;;;;;;;;4957907;29;20102;-79
2023/05/18 03:55:46;;;;;;;0.30;0.30;;;;;;;;;;4949286;28;20024;-79
2023/05/18 03:58:11;;;;;;;0.20;0.20;;;;;;;;;;4959209;29;20019;-80
2023/05/18 04:00:37;;;;;;;0.30;0.30;;;;;;;;;;4959031;29;20026;-80
2023/05/18 04:03:03;;;;;;;0.20;0.20;;;;;;;;;;4950399;29;20761;-80
2023/05/18 04:05:28;;;;;;;0.20;0.20;;;;;;;;;;4938416;29;20061;-80
2023/05/18 04:07:56;;;;;;;0.20;0.20;;;;;;;;;;4951453;29;20031;-80
2023/05/18 04:10:21;;;;;;;0.30;0.30;;;;;;;;;;4942711;29;20032;-79
2023/05/18 04:12:47;;;;;;;0.20;0.20;;;;;;;;;;4946962;29;20042;-80
2023/05/18 04:15:13;;;;;;;0.20;0.20;;;;;;;;;;4949139;29;20040;-79
2023/05/18 04:17:42;;;;;;;0.20;0.20;;;;;;;;;;4948050;29;20051;-80
2023/05/18 04:20:14;;;;;;;0.20;0.20;;;;;;;;;;4949837;29;20493;-80
2023/05/18 04:22:46;;;;;;;0.20;0.20;;;;;;;;;;4950827;29;20034;-79
2023/05/18 04:25:15;;;;;;;0.20;0.20;;;;;;;;;;4942922;29;20397;-79
2023/05/18 04:27:41;;;;;;;0.20;0.20;;;;;;;;;;4934727;29;20054;-80
2023/05/18 04:30:09;;;;;;;0.20;0.20;;;;;;;;;;4959105;29;20490;-80
2023/05/18 04:32:35;;;;;;;0.20;0.20;;;;;;;;;;4931402;29;20023;-80
2023/05/18 04:35:03;;;;;;;0.20;0.20;;;;;;;;;;4949660;29;20023;-80
2023/05/18 04:37:28;;;;;;;0.17;0.17;;;;;;;;;;4956719;28;20422;-80
2023/05/18 04:39:53;;;;;;;0.20;0.20;;;;;;;;;;4950554;29;20059;-79
2023/05/18 04:42:19;;;;;;;0.20;0.20;;;;;;;;;;4926914;29;20118;-79
2023/05/18 04:44:45;;;;;;;0.20;0.20;;;;;;;;;;4947652;29;20062;-79
2023/05/18 04:47:11;;;;;;;0.20;0.20;;;;;;;;;;4943805;29;20043;-79
2023/05/18 04:49:36;;;;;;;0.20;0.20;;;;;;;;;;4949919;29;20406;-79
2023/05/18 04:52:01;;;;;;;0.20;0.20;;;;;;;;;;4926957;29;20023;-79
2023/05/18 04:54:30;;;;;;;0.20;0.20;;;;;;;;;;4948512;29;20410;-79
2023/05/18 04:56:57;;;;;;;0.20;0.20;;;;;;;;;;4932076;29;20023;-79
2023/05/18 04:59:25;;;;;;;0.20;0.20;;;;;;;;;;4943052;29;20019;-79
2023/05/18 05:01:51;;;;;;;0.20;0.20;;;;;;;;;;4950409;29;20031;-79
2023/05/18 05:04:17;;;;;;;0.22;0.22;;;;;;;;;;4949443;29;20101;-79
2023/05/18 05:06:43;;;;;;;0.20;0.20;;;;;;;;;;4947480;29;20075;-79
2023/05/18 05:09:08;;;;;;;0.20;0.20;;;;;;;;;;4935100;29;20039;-79
2023/05/18 05:11:33;;;;;;;0.20;0.20;;;;;;;;;;4946903;29;20034;-79
2023/05/18 05:14:01;;;;;;;0.30;0.30;;;;;;;;;;4921865;29;20039;-79
2023/05/18 05:16:27;;;;;;;0.20;0.20;;;;;;;;;;4938472;29;20114;-79
2023/05/18 05:18:52;;;;;;;0.20;0.20;;;;;;;;;;4942220;29;20055;-79
2023/05/18 05:21:17;;;;;;;0.20;0.20;;;;;;;;;;4941145;29;20425;-79
2023/05/18 05:23:44;;;;;;;0.20;0.20;;;;;;;;;;4926639;29;20062;-80
2023/05/18 05:26:09;;;;;;;0.20;0.20;;;;;;;;;;4922446;29;20032;-80
2023/05/18 05:28:34;;;;;;;0.20;0.20;;;;;;;;;;4959316;29;20034;-79
2023/05/18 05:31:00;;;;;;;0.20;0.20;;;;;;;;;;4949895;29;20035;-79
2023/05/18 05:33:25;;;;;;;0.20;0.20;;;;;;;;;;4950471;29;20035;-79
2023/05/18 05:35:50;;;;;;;0.20;0.20;;;;;;;;;;4984841;23;20055;-81
2023/05/18 05:38:16;;;;;;;0.20;0.20;;;;;;;;;;4940731;29;20446;-79
2023/05/18 05:40:41;;;;;;;0.20;0.20;;;;;;;;;;4956871;29;20047;-80
2023/05/18 05:43:06;;;;;;;0.20;0.20;;;;;;;;;;4965007;28;20133;-80
2023/05/18 05:45:32;;;;;;;0.20;0.20;;;;;;;;;;4958816;28;20047;-79
2023/05/18 05:47:57;;;;;;;0.20;0.20;;;;;;;;;;4959543;28;20027;-79
2023/05/18 05:50:23;;;;;;;0.20;0.20;;;;;;;;;;4964795;28;20492;-79
2023/05/18 05:52:48;;;;;;;0.20;0.20;;;;;;;;;;4961287;29;20027;-81
2023/05/18 05:55:13;;;;;;;0.20;0.20;;;;;;;;;;4971958;28;20178;-78
2023/05/18 05:57:41;;;;;;;0.20;0.20;;;;;;;;;;4955355;28;20019;-78
2023/05/18 06:00:11;;;;;;;0.20;0.20;;;;;;;;;;4944635;28;20063;-78
2023/05/18 06:02:37;;;;;;;0.20;0.20;;;;;;;;;;4952799;29;20046;-81
2023/05/18 06:05:03;;;;;;;0.17;0.17;;;;;;;;;;4950787;28;20055;-82
2023/05/18 06:07:29;;;;;;;0.15;0.15;;;;;;;;;;4952816;28;20023;-82
2023/05/18 06:09:55;;;;;;;0.20;0.20;;;;;;;;;;4945353;29;20038;-83
2023/05/18 06:12:20;;;;;;;0.20;0.20;;;;;;;;;;4974548;28;20058;-82
2023/05/18 06:14:45;;;;;;;0.20;0.20;;;;;;;;;;4973598;28;20039;-81
2023/05/18 06:17:11;;;;;;;0.20;0.20;;;;;;;;;;4964037;28;20094;-82
2023/05/18 06:19:36;;;;;;;0.20;0.20;;;;;;;;;;4948537;29;20020;-82
2023/05/18 06:22:01;;;;;;;0.20;0.20;;;;;;;;;;4954329;28;20087;-81
2023/05/18 06:24:27;;;;;;;0.20;0.20;;;;;;;;;;4952515;28;20078;-83
2023/05/18 06:26:52;;;;;;;0.20;0.20;;;;;;;;;;4937350;29;20055;-83
2023/05/18 06:29:18;;;;;;;0.20;0.20;;;;;;;;;;4941876;28;20031;-83
2023/05/18 06:31:43;;;;;;;0.30;0.30;;;;;;;;;;4960617;28;20034;-82
2023/05/18 06:34:08;;;;;;;0.20;0.20;;;;;;;;;;4959478;28;20039;-81
2023/05/18 06:36:34;;;;;;;0.40;0.40;;;;;;;;;;4936862;29;20038;-81
2023/05/18 06:38:59;;;;;;;0.20;0.20;;;;;;;;;;4977319;28;20087;-77
2023/05/18 06:41:24;;;;;;;0.30;0.30;;;;;;;;;;4973091;28;20418;-81
2023/05/18 06:43:50;;;;;;;0.20;0.20;;;;;;;;;;4967187;29;20485;-80
2023/05/18 06:46:22;;;;;;;0.25;0.25;;;;;;;;;;4944768;29;20027;-82
2023/05/18 06:48:48;;;;;;;0.20;0.20;;;;;;;;;;4964468;28;20035;-80
2023/05/18 06:51:15;;;;;;;0.30;0.30;;;;;;;;;;4951995;29;20031;-82
2023/05/18 06:53:40;;;;;;;0.50;0.50;;;;;;;;;;4958276;28;20030;-80
2023/05/18 06:56:06;;;;;;;0.20;0.20;;;;;;;;;;4942227;29;20028;-82
2023/05/18 06:58:31;;;;;;;0.20;0.20;;;;;;;;;;4949210;28;20018;-82
2023/05/18 07:00:56;;;;;;;0.20;0.20;;;;;;;;;;4972361;28;20477;-80
2023/05/18 07:03:22;;;;;;;0.15;0.15;;;;;;;;;;4959151;28;20035;-80
2023/05/18 07:05:47;;;;;;;0.20;0.20;;;;;;;;;;4959944;28;20058;-81
2023/05/18 07:08:12;;;;;;;0.20;0.20;;;;;;;;;;4962358;28;20027;-83
2023/05/18 07:10:38;;;;;;;0.25;0.25;;;;;;;;;;4958323;28;20039;-82
2023/05/18 07:13:03;;;;;;;0.10;0.10;;;;;;;;;;4938092;29;20040;-80
2023/05/18 07:15:28;;;;;;;0.10;0.10;;;;;;;;;;4937777;29;20034;-81
2023/05/18 07:18:19;;;;;;;0.20;0.20;;;;;;;;;;4967374;28;20054;-80
2023/05/18 07:20:44;;;;;;;0.13;0.13;;;;;;;;;;4951135;29;20065;-81
2023/05/18 07:23:09;;;;;;;0.10;0.10;;;;;;;;;;4938532;28;20035;-82
2023/05/18 07:25:35;;;;;;;0.20;0.20;;;;;;;;;;4961230;28;20023;-80
2023/05/18 07:28:00;;;;;;;0.17;0.17;;;;;;;;;;4963777;28;20058;-81
2023/05/18 07:30:26;;;;;;;0.10;0.10;;;;;;;;;;4966376;28;20023;-82
2023/05/18 07:32:51;;;;;;;0.65;0.65;;;;;;;;;;4958355;28;20119;-78
2023/05/18 07:35:19;;;;;;;0.10;0.10;;;;;;;;;;4939966;28;20402;-78
2023/05/18 07:37:44;;;;;;;0.20;0.20;;;;;;;;;;4942690;29;20042;-80
2023/05/18 07:40:10;;;;;;;0.20;0.20;;;;;;;;;;4967198;28;20319;-82
2023/05/18 07:42:37;;;;;;;0.93;0.68;;;;;;;;;;4966099;28;20029;-81
2023/05/18 07:45:03;;;;;;;0.10;0.10;;;;;;;;;;4960790;28;20032;-82
2023/05/18 07:47:28;;;;;;;2.83;0.63;;;;;;;;;;4943983;28;20025;-81
2023/05/18 07:49:54;;;;;;;0.10;0.10;;;;;;;;;;4952802;28;20131;-81
2023/05/18 07:52:19;;;;;;;0.10;0.10;;;;;;;;;;4962286;28;20384;-83
2023/05/18 07:54:45;;;;;;;0.15;0.15;;;;;;;;;;4955020;28;20041;-81
2023/05/18 07:57:10;;;;;;;0.10;0.10;;;;;;;;;;4960127;28;20493;-82
2023/05/18 07:59:36;;;;;;;0.10;0.10;;;;;;;;;;4957087;28;20394;-82
2023/05/18 08:02:01;;;;;;;0.10;0.10;;;;;;;;;;4945786;28;20038;-82
2023/05/18 08:04:27;;;;;;;0.10;0.10;;;;;;;;;;4963441;28;20106;-80
2023/05/18 08:06:53;;;;;;;0.10;0.10;;;;;;;;;;4952041;28;20179;-82
2023/05/18 08:09:20;;;;;;;0.25;0.20;;;;;;;;;;4938276;28;20050;-82
2023/05/18 08:11:46;;;;;;;0.20;0.20;;;;;;;;;;4966819;28;20027;-82
2023/05/18 08:14:11;;;;;;;0.10;0.10;;;;;;;;;;4965641;28;20082;-81
2023/05/18 08:16:37;;;;;;;0.10;0.10;;;;;;;;;;4936917;29;20019;-79
2023/05/18 08:19:02;;;;;;;0.20;0.20;;;;;;;;;;4971379;28;20101;-81
2023/05/18 08:21:28;;;;;;;0.10;0.10;;;;;;;;;;4973705;28;20027;-82
2023/05/18 08:23:54;;;;;;;0.10;0.10;;;;;;;;;;4947483;28;20033;-81
2023/05/18 08:26:19;;;;;;;0.10;0.10;;;;;;;;;;4943289;28;20441;-81
2023/05/18 08:28:44;;;;;;;0.10;0.10;;;;;;;;;;4950913;28;20485;-82
2023/05/18 08:31:11;;;;;;;0.10;0.10;;;;;;;;;;4961684;28;20027;-80
2023/05/18 08:33:36;;;;;;;0.20;0.20;;;;;;;;;;4977492;28;20050;-81
2023/05/18 08:36:02;;;;;;;0.10;0.10;;;;;;;;;;4965232;28;20035;-82
2023/05/18 08:38:27;;;;;;;0.10;0.10;;;;;;;;;;4971582;28;20066;-81
2023/05/18 08:41:02;;;;;;;0.10;0.10;;;;;;;;;;4948638;28;20122;-82
2023/05/18 08:43:32;;;;;;;0.30;0.30;;;;;;;;;;4953852;29;20034;-80
2023/05/18 08:46:09;;;;;;;0.10;0.10;;;;;;;;;;4964089;28;20038;-81
2023/05/18 08:48:35;;;;;;;0.20;0.15;;;;;;;;;;4958656;29;20035;-84
2023/05/18 08:51:03;;;;;;;0.10;0.10;;;;;;;;;;4979084;28;20046;-83
2023/05/18 08:53:28;;;;;;;2.20;0.73;;;;;;;;;;4948946;29;20425;-85
2023/05/18 08:55:54;;;;;;;0.10;0.10;;;;;;;;;;4951599;28;20027;-81
2023/05/18 08:58:25;;;;;;;0.10;0.10;;;;;;;;;;4946119;28;20061;-83
2023/05/18 09:00:53;;;;;;;0.10;0.10;;;;;;;;;;4945700;29;20034;-80
2023/05/18 09:03:19;;;;;;;0.10;0.10;;;;;;;;;;4972198;28;21015;-80
2023/05/18 09:05:45;;;;;;;0.17;0.17;;;;;;;;;;4958331;28;20089;-80
2023/05/18 09:08:11;;;;;;;0.10;0.10;;;;;;;;;;4948784;28;20034;-80
2023/05/18 09:10:38;;;;;;;0.20;0.20;;;;;;;;;;4963630;28;20067;-81
2023/05/18 09:13:04;;;;;;;0.10;0.10;;;;;;;;;;4947207;28;20336;-80
2023/05/18 09:15:31;;;;;;;0.20;0.20;;;;;;;;;;4949760;28;20019;-83
2023/05/18 09:17:57;;;;;;;0.10;0.10;;;;;;;;;;4956719;29;20082;-82
2023/05/18 09:20:24;;;;;;;0.08;0.08;;;;;;;;;;4960703;28;20689;-83
2023/05/18 09:22:50;;;;;;;0.20;0.20;;;;;;;;;;4956511;29;20035;-82
2023/05/18 09:25:17;;;;;;;0.10;0.10;;;;;;;;;;4957706;28;20457;-82
2023/05/18 09:27:43;;;;;;;0.10;0.10;;;;;;;;;;4960754;28;20038;-81
2023/05/18 09:30:11;;;;;;;0.20;0.20;;;;;;;;;;4953103;28;20039;-83
2023/05/18 09:32:37;;;;;;;0.20;0.20;;;;;;;;;;4941713;29;20027;-82
2023/05/18 09:35:04;;;;;;;0.10;0.10;;;;;;;;;;4956574;28;20074;-81
2023/05/18 09:37:30;;;;;;;0.10;0.10;;;;;;;;;;4952705;28;20018;-83
2023/05/18 09:39:59;;;;;;;0.10;0.10;;;;;;;;;;4961667;28;20105;-82
2023/05/18 09:42:39;;;;;;;0.10;0.10;;;;;;;;;;4961246;28;20404;-80
2023/05/18 09:45:16;;;;;;;0.13;0.13;;;;;;;;;;4942659;29;20035;-80
2023/05/18 09:47:41;;;;;;;0.10;0.10;;;;;;;;;;4959351;28;20048;-82
2023/05/18 09:50:07;;;;;;;0.10;0.10;;;;;;;;;;4959791;28;20032;-81
2023/05/18 09:52:41;;;;;;;0.10;0.10;;;;;;;;;;4966208;28;20131;-79
2023/05/18 09:55:06;;;;;;;0.10;0.10;;;;;;;;;;4955475;28;20512;-80
2023/05/18 09:57:39;;;;;;;0.20;0.20;;;;;;;;;;4961812;28;20027;-80
2023/05/18 10:00:09;;;;;;;0.00;0.00;;;;;;;;;;4949230;29;20027;-81
2023/05/18 10:02:47;;;;;;;0.10;0.10;;;;;;;;;;4938218;29;20019;-81
2023/05/18 10:05:19;;;;;;;0.10;0.10;;;;;;;;;;4934503;28;20023;-82
2023/05/18 10:07:45;;;;;;;0.10;0.10;;;;;;;;;;4956437;28;20041;-82
2023/05/18 10:10:11;;;;;;;0.00;0.00;;;;;;;;;;4971551;28;20543;-82
2023/05/18 10:12:38;;;;;;;0.00;0.00;;;;;;;;;;4946749;29;20039;-81
2023/05/18 10:15:08;;;;;;;0.13;0.13;;;;;;;;;;4958418;28;20628;-80
2023/05/18 10:17:36;;;;;;;0.10;0.10;;;;;;;;;;4939266;28;20027;-83
2023/05/18 10:20:04;;;;;;;0.20;0.20;;;;;;;;;;4962060;28;20027;-81
2023/05/18 10:22:32;;;;;;;0.10;0.10;;;;;;;;;;4962559;28;20034;-83
2023/05/18 10:25:00;;;;;;;0.10;0.10;;;;;;;;;;4941284;29;20063;-84
2023/05/18 10:27:27;;;;;;;0.08;0.08;;;;;;;;;;4942077;29;20027;-83
2023/05/18 10:29:56;;;;;;;0.10;0.10;;;;;;;;;;4965960;28;20117;-83
2023/05/18 10:32:22;;;;;;;0.25;0.25;;;;;;;;;;4936657;29;20052;-83
2023/05/18 10:34:50;;;;;;;0.10;0.10;;;;;;;;;;4955483;28;20035;-82
2023/05/18 10:37:16;;;;;;;0.10;0.10;;;;;;;;;;4961365;28;20089;-81
2023/05/18 10:39:44;;;;;;;0.10;0.10;;;;;;;;;;4970987;28;20034;-83
2023/05/18 10:42:10;;;;;;;0.10;0.10;;;;;;;;;;4963429;28;20027;-84
2023/05/18 10:44:36;;;;;;;0.10;0.10;;;;;;;;;;4970506;28;20023;-81
2023/05/18 10:47:04;;;;;;;0.10;0.10;;;;;;;;;;4957157;28;20030;-84
2023/05/18 10:49:31;;;;;;;0.00;0.00;;;;;;;;;;4959875;28;20091;-85
2023/05/18 10:51:58;;;;;;;0.75;0.30;;;;;;;;;;4955200;28;20710;-81
2023/05/18 10:54:24;;;;;;;0.55;0.13;;;;;;;;;;4953574;28;20035;-81
2023/05/18 10:56:53;;;;;;;0.20;0.20;;;;;;;;;;4939082;29;20029;-82
2023/05/18 10:59:21;;;;;;;0.15;0.15;;;;;;;;;;4958977;28;20046;-83
2023/05/18 11:01:49;;;;;;;0.32;0.25;;;;;;;;;;4953130;29;20075;-80
2023/05/18 11:04:15;;;;;;;0.20;0.20;;;;;;;;;;4962199;28;20434;-82
2023/05/18 11:06:40;;;;;;;0.20;0.20;;;;;;;;;;4964726;28;20023;-83
2023/05/18 11:09:06;;;;;;;0.10;0.10;;;;;;;;;;4955316;28;20035;-84
2023/05/18 11:11:50;;;;;;;0.03;0.03;;;;;;;;;;4960443;28;20038;-84
2023/05/18 11:14:25;;;;;;;0.03;0.03;;;;;;;;;;4958631;28;20031;-83
2023/05/18 11:16:50;;;;;;;0.17;0.17;;;;;;;;;;4947883;28;20127;-81
2023/05/18 11:19:16;;;;;;;0.10;0.10;;;;;;;;;;4960169;28;20027;-81
2023/05/18 11:21:41;;;;;;;0.10;0.10;;;;;;;;;;4969308;28;20086;-81
2023/05/18 11:24:20;;;;;;;0.00;0.00;;;;;;;;;;4939895;29;20032;-83
2023/05/18 11:27:15;;;;;;;0.00;0.00;;;;;;;;;;4952444;28;20381;-83
2023/05/18 11:29:46;;;;;;;0.10;0.10;;;;;;;;;;4948278;28;20038;-81
2023/05/18 11:32:32;;;;;;;0.28;0.28;;;;;;;;;;4948400;28;20039;-83
2023/05/18 11:34:58;;;;;;;0.10;0.10;;;;;;;;;;4938725;29;20082;-81
2023/05/18 11:37:38;;;;;;;0.00;0.00;;;;;;;;;;4974769;28;20026;-82
2023/05/18 11:40:08;;;;;;;0.20;0.20;;;;;;;;;;4968049;29;20036;-80
2023/05/18 11:42:34;;;;;;;0.05;0.05;;;;;;;;;;4942600;29;20086;-81
2023/05/18 11:45:11;;;;;;;0.03;0.03;;;;;;;;;;4961923;28;20031;-82
2023/05/18 11:47:39;;;;;;;1.90;0.95;;;;;;;;;;4938914;29;20043;-85
2023/05/18 11:50:11;;;;;;;0.43;0.43;;;;;;;;;;4943412;28;20095;-79
2023/05/18 11:52:46;;;;;;;;;;;;;;;;;;4961137;28;20030;-80
2023/05/18 11:55:16;;;;;;;0.00;0.00;;;;;;;;;;4958553;28;19918;-80
2023/05/18 11:57:44;;;;;;;0.10;0.10;;;;;;;;;;4961083;28;20039;-80
2023/05/18 12:00:10;;;;;;;0.00;0.00;;;;;;;;;;4950089;28;20038;-79
2023/05/18 12:02:37;;;;;;;0.25;0.25;;;;;;;;;;4958713;28;20042;-79
2023/05/18 12:05:07;;;;;;;0.00;0.00;;;;;;;;;;4963653;28;20027;-81
2023/05/18 12:07:34;;;;;;;0.00;0.00;;;;;;;;;;4956282;28;20015;-80
2023/05/18 12:10:05;;;;;;;0.10;0.10;;;;;;;;;;4939028;29;20035;-80
2023/05/18 12:12:32;;;;;;;0.10;0.10;;;;;;;;;;4953610;28;20037;-80
2023/05/18 12:15:04;;;;;;;0.10;0.10;;;;;;;;;;4960314;28;20031;-80
2023/05/18 12:17:40;;;;;;;0.03;0.03;;;;;;;;;;4939217;29;20049;-79
2023/05/18 12:20:11;;;;;;;0.10;0.10;;;;;;;;;;4956467;28;20058;-80
2023/05/18 12:22:38;;;;;;;0.10;0.10;;;;;;;;;;4971559;28;20023;-80
2023/05/18 12:25:03;;;;;;;0.00;0.00;;;;;;;;;;4959787;28;20038;-81
2023/05/18 12:27:29;;;;;;;0.00;0.00;;;;;;;;;;4955429;28;20019;-81
2023/05/18 12:29:54;;;;;;;0.20;0.10;;;;;;;;;;4943341;29;20031;-81
2023/05/18 12:32:19;;;;;;;0.08;0.08;;;;;;;;;;4932861;29;20023;-80
2023/05/18 12:34:45;;;;;;;0.10;0.10;;;;;;;;;;4952254;28;20030;-80
2023/05/18 12:37:10;;;;;;;0.00;0.00;;;;;;;;;;4953801;28;20487;-80
2023/05/18 12:39:36;;;;;;;0.00;0.00;;;;;;;;;;4959501;28;20035;-80
2023/05/18 12:42:09;;;;;;;0.10;0.10;;;;;;;;;;4958939;28;20085;-79
2023/05/18 12:44:34;;;;;;;0.10;0.10;;;;;;;;;;4929068;28;20038;-80
2023/05/18 12:47:00;;;;;;;0.00;0.00;;;;;;;;;;4961415;28;20032;-80
2023/05/18 12:49:26;;;;;;;0.10;0.10;;;;;;;;;;4956021;28;20034;-80
2023/05/18 12:51:54;;;;;;;0.10;0.10;;;;;;;;;;4965511;28;20474;-80
2023/05/18 12:54:27;;;;;;;0.00;0.00;;;;;;;;;;4964158;28;20571;-81
2023/05/18 12:56:59;;;;;;;0.10;0.10;;;;;;;;;;4961979;28;20091;-80
2023/05/18 12:59:25;;;;;;;;;;;;;;;;;;4959129;28;20129;-80
2023/05/18 13:01:50;;;;;;;0.00;0.00;;;;;;;;;;4934643;29;19918;-80
2023/05/18 13:04:16;;;;;;;0.03;0.03;;;;;;;;;;4939465;28;20452;-80
2023/05/18 13:06:41;;;;;;;0.13;0.13;;;;;;;;;;4953195;28;20039;-81
2023/05/18 13:09:14;;;;;;;0.00;0.00;;;;;;;;;;4950037;28;20023;-81
2023/05/18 13:11:44;;;;;;;0.00;0.00;;;;;;;;;;4953630;28;20027;-81
2023/05/18 13:14:10;;;;;;;0.10;0.10;;;;;;;;;;4940425;29;20031;-81
2023/05/18 13:16:44;;;;;;;0.00;0.00;;;;;;;;;;4955375;28;20023;-79
2023/05/18 13:19:10;;;;;;;0.00;0.00;;;;;;;;;;4968800;28;20031;-78
2023/05/18 13:21:36;;;;;;;0.10;0.10;;;;;;;;;;4958258;28;20070;-78
2023/05/18 13:24:03;;;;;;;0.10;0.10;;;;;;;;;;4957832;28;20470;-80
2023/05/18 13:26:28;;;;;;;0.10;0.10;;;;;;;;;;4953996;28;20031;-80
2023/05/18 13:28:55;;;;;;;0.20;0.20;;;;;;;;;;4957164;28;20583;-80
2023/05/18 13:31:21;;;;;;;0.10;0.10;;;;;;;;;;4957492;28;20110;-78
2023/05/18 13:33:48;;;;;;;0.10;0.10;;;;;;;;;;4937100;29;20051;-79
2023/05/18 13:36:14;;;;;;;0.15;0.15;;;;;;;;;;4935883;29;20182;-79
2023/05/18 13:38:41;;;;;;;0.03;0.03;;;;;;;;;;4934454;29;20304;-80
2023/05/18 13:41:08;;;;;;;0.10;0.10;;;;;;;;;;4956526;28;20126;-80
2023/05/18 13:43:34;;;;;;;0.00;0.00;;;;;;;;;;4965088;28;20050;-80
2023/05/18 13:45:59;;;;;;;0.00;0.00;;;;;;;;;;4944625;28;20028;-80
2023/05/18 13:48:26;;;;;;;0.68;0.68;;;;;;;;;;4953236;28;20061;-80
2023/05/18 13:50:52;;;;;;;0.05;0.05;;;;;;;;;;4931697;29;20399;-79
2023/05/18 13:53:17;;;;;;;0.10;0.10;;;;;;;;;;4966472;28;20022;-79
2023/05/18 13:55:43;;;;;;;0.10;0.10;;;;;;;;;;4960144;28;20367;-81
2023/05/18 13:58:08;;;;;;;0.10;0.10;;;;;;;;;;4944671;29;20035;-80
2023/05/18 14:00:35;;;;;;;0.25;0.25;;;;;;;;;;4927374;29;20035;-80
2023/05/18 14:03:01;;;;;;;0.10;0.10;;;;;;;;;;4958247;28;20020;-80
2023/05/18 14:05:26;;;;;;;0.15;0.15;;;;;;;;;;4949966;28;20034;-79
2023/05/18 14:07:52;;;;;;;0.85;0.28;;;;;;;;;;4939170;29;20031;-79
2023/05/18 14:10:17;;;;;;;0.10;0.10;;;;;;;;;;4959614;28;20054;-79
2023/05/18 14:12:43;;;;;;;0.10;0.10;;;;;;;;;;4957649;28;20051;-81
2023/05/18 14:15:09;;;;;;;0.15;0.15;;;;;;;;;;4933166;28;20127;-80
2023/05/18 14:17:35;;;;;;;0.20;0.20;;;;;;;;;;4953059;28;20023;-80
2023/05/18 14:20:00;;;;;;;2.83;0.90;;;;;;;;;;4936712;29;20074;-82
2023/05/18 14:22:26;;;;;;;0.00;0.00;;;;;;;;;;4956058;28;20070;-81
2023/05/18 14:24:52;;;;;;;0.10;0.10;;;;;;;;;;4953869;28;20032;-81
2023/05/18 14:27:19;;;;;;;0.10;0.10;;;;;;;;;;4954372;28;20034;-81
2023/05/18 14:29:44;;;;;;;0.10;0.10;;;;;;;;;;4952849;28;20036;-81
2023/05/18 14:32:10;;;;;;;0.00;0.00;;;;;;;;;;4966461;28;20121;-81
2023/05/18 14:34:35;;;;;;;0.05;0.05;;;;;;;;;;4965933;28;20113;-81
2023/05/18 14:37:00;;;;;;;0.43;0.43;;;;;;;;;;4956202;28;20399;-80
2023/05/18 14:39:26;;;;;;;0.00;0.00;;;;;;;;;;4958134;28;20023;-81
2023/05/18 14:41:51;;;;;;;0.05;0.05;;;;;;;;;;4938897;29;20034;-81
2023/05/18 14:44:16;;;;;;;0.10;0.10;;;;;;;;;;4944141;28;20034;-80